Palm City, Florida
Current Conditions -  °F | °C
As of 11:35 PM on Saturday 25 Oct 2014 (Local Time) from KSUA Reporting Station
Clear Clear  
Wind Chill: 72°   Ceiling: Unl
Heat Index: 72°   Visibility: 10mi
Dew Point: 63°   Wind: 9mph
Humidity: 73%   Direction: 360°N
Pressure: 29.96"   Gusts: NA
Location:  27.16°N, 80.27°W
Report Text: KSUA 260335Z AUTO 36008KT 10SM CLR 22/17 A2996 RMK AO2
Loading
Personal Weather Stations






























Interactive Weather Map
Tropical Storm Tracking
New forecast layout! Learn more

10-Day Weather Forecast

Advertisements
Track Severe Weather on mobile